sensor_id;sensor_type;location;lat;lon;timestamp;P1;durP1;ratioP1;P2;durP2;ratioP2
6013;SDS011;3035;49.928;8.410;2022-11-14T00:00:51;10.30;;;6.40;;
6013;SDS011;3035;49.928;8.410;2022-11-14T00:03:19;8.93;;;6.07;;
6013;SDS011;3035;49.928;8.410;2022-11-14T00:05:48;9.90;;;6.53;;
6013;SDS011;3035;49.928;8.410;2022-11-14T00:08:18;13.57;;;6.97;;
6013;SDS011;3035;49.928;8.410;2022-11-14T00:10:46;10.53;;;6.93;;
6013;SDS011;3035;49.928;8.410;2022-11-14T00:13:14;10.83;;;7.93;;
6013;SDS011;3035;49.928;8.410;2022-11-14T00:15:42;11.00;;;7.37;;
6013;SDS011;3035;49.928;8.410;2022-11-14T00:18:11;8.77;;;7.00;;
6013;SDS011;3035;49.928;8.410;2022-11-14T00:20:40;10.00;;;7.50;;
6013;SDS011;3035;49.928;8.410;2022-11-14T00:23:08;29.30;;;7.60;;
6013;SDS011;3035;49.928;8.410;2022-11-14T00:25:36;12.17;;;8.10;;
6013;SDS011;3035;49.928;8.410;2022-11-14T00:28:04;12.27;;;8.40;;
6013;SDS011;3035;49.928;8.410;2022-11-14T00:30:33;16.83;;;9.33;;
6013;SDS011;3035;49.928;8.410;2022-11-14T00:33:01;17.00;;;10.97;;
6013;SDS011;3035;49.928;8.410;2022-11-14T00:35:30;16.27;;;10.90;;
6013;SDS011;3035;49.928;8.410;2022-11-14T00:37:58;23.20;;;11.60;;
6013;SDS011;3035;49.928;8.410;2022-11-14T00:40:26;18.60;;;10.90;;
6013;SDS011;3035;49.928;8.410;2022-11-14T00:42:56;27.03;;;13.43;;
6013;SDS011;3035;49.928;8.410;2022-11-14T00:45:24;29.33;;;13.20;;
6013;SDS011;3035;49.928;8.410;2022-11-14T00:47:52;28.73;;;13.83;;
6013;SDS011;3035;49.928;8.410;2022-11-14T00:50:21;28.53;;;13.87;;
6013;SDS011;3035;49.928;8.410;2022-11-14T00:52:49;26.27;;;14.00;;
6013;SDS011;3035;49.928;8.410;2022-11-14T00:55:17;31.33;;;14.77;;
6013;SDS011;3035;49.928;8.410;2022-11-14T00:57:47;32.17;;;14.87;;
6013;SDS011;3035;49.928;8.410;2022-11-14T01:00:15;31.80;;;15.17;;
6013;SDS011;3035;49.928;8.410;2022-11-14T01:02:44;24.93;;;13.17;;
6013;SDS011;3035;49.928;8.410;2022-11-14T01:05:12;41.00;;;15.00;;
6013;SDS011;3035;49.928;8.410;2022-11-14T01:07:40;26.77;;;14.07;;
6013;SDS011;3035;49.928;8.410;2022-11-14T01:10:09;29.73;;;14.30;;
6013;SDS011;3035;49.928;8.410;2022-11-14T01:12:38;27.60;;;14.77;;
6013;SDS011;3035;49.928;8.410;2022-11-14T01:15:07;30.23;;;16.20;;
6013;SDS011;3035;49.928;8.410;2022-11-14T01:17:36;38.37;;;15.40;;
6013;SDS011;3035;49.928;8.410;2022-11-14T01:20:05;37.60;;;16.27;;
6013;SDS011;3035;49.928;8.410;2022-11-14T01:22:33;49.33;;;17.77;;
6013;SDS011;3035;49.928;8.410;2022-11-14T01:25:01;35.10;;;16.00;;
6013;SDS011;3035;49.928;8.410;2022-11-14T01:27:30;42.10;;;17.67;;
6013;SDS011;3035;49.928;8.410;2022-11-14T01:29:58;35.93;;;16.17;;
6013;SDS011;3035;49.928;8.410;2022-11-14T01:32:26;32.30;;;16.00;;
6013;SDS011;3035;49.928;8.410;2022-11-14T01:34:54;28.87;;;15.87;;
6013;SDS011;3035;49.928;8.410;2022-11-14T01:37:22;40.33;;;17.70;;
6013;SDS011;3035;49.928;8.410;2022-11-14T01:39:52;91.40;;;17.63;;
6013;SDS011;3035;49.928;8.410;2022-11-14T01:42:20;35.17;;;16.33;;
6013;SDS011;3035;49.928;8.410;2022-11-14T01:44:49;27.70;;;15.97;;
6013;SDS011;3035;49.928;8.410;2022-11-14T01:47:19;38.17;;;18.40;;
6013;SDS011;3035;49.928;8.410;2022-11-14T01:49:50;37.93;;;15.27;;
6013;SDS011;3035;49.928;8.410;2022-11-14T01:52:21;40.33;;;15.20;;
6013;SDS011;3035;49.928;8.410;2022-11-14T01:54:49;33.17;;;15.73;;
6013;SDS011;3035;49.928;8.410;2022-11-14T01:57:19;32.10;;;16.40;;
6013;SDS011;3035;49.928;8.410;2022-11-14T01:59:47;37.83;;;16.50;;
6013;SDS011;3035;49.928;8.410;2022-11-14T02:02:16;32.37;;;16.10;;
6013;SDS011;3035;49.928;8.410;2022-11-14T02:04:44;39.47;;;18.30;;
6013;SDS011;3035;49.928;8.410;2022-11-14T02:07:12;37.10;;;16.60;;
6013;SDS011;3035;49.928;8.410;2022-11-14T02:09:42;49.50;;;16.00;;
6013;SDS011;3035;49.928;8.410;2022-11-14T02:12:09;30.53;;;15.10;;
6013;SDS011;3035;49.928;8.410;2022-11-14T02:14:36;35.63;;;15.00;;
6013;SDS011;3035;49.928;8.410;2022-11-14T02:17:04;29.17;;;14.20;;
6013;SDS011;3035;49.928;8.410;2022-11-14T02:22:07;28.60;;;15.00;;
6013;SDS011;3035;49.928;8.410;2022-11-14T02:24:35;34.93;;;15.43;;
6013;SDS011;3035;49.928;8.410;2022-11-14T02:27:03;33.23;;;15.00;;
6013;SDS011;3035;49.928;8.410;2022-11-14T02:29:33;28.43;;;13.60;;
6013;SDS011;3035;49.928;8.410;2022-11-14T02:32:01;26.30;;;12.73;;
6013;SDS011;3035;49.928;8.410;2022-11-14T02:34:29;26.00;;;14.47;;
6013;SDS011;3035;49.928;8.410;2022-11-14T02:36:58;33.40;;;15.60;;
6013;SDS011;3035;49.928;8.410;2022-11-14T02:39:26;25.60;;;12.77;;
6013;SDS011;3035;49.928;8.410;2022-11-14T02:41:55;40.43;;;15.27;;
6013;SDS011;3035;49.928;8.410;2022-11-14T02:44:24;30.47;;;14.10;;
6013;SDS011;3035;49.928;8.410;2022-11-14T02:46:53;27.70;;;13.40;;
6013;SDS011;3035;49.928;8.410;2022-11-14T02:49:22;30.00;;;13.23;;
6013;SDS011;3035;49.928;8.410;2022-11-14T02:51:50;23.00;;;12.90;;
6013;SDS011;3035;49.928;8.410;2022-11-14T02:54:19;25.50;;;11.73;;
6013;SDS011;3035;49.928;8.410;2022-11-14T02:56:48;23.33;;;12.17;;
6013;SDS011;3035;49.928;8.410;2022-11-14T02:59:16;18.93;;;11.77;;
6013;SDS011;3035;49.928;8.410;2022-11-14T03:01:44;24.73;;;12.63;;
6013;SDS011;3035;49.928;8.410;2022-11-14T03:04:13;21.90;;;12.83;;
6013;SDS011;3035;49.928;8.410;2022-11-14T03:06:41;17.57;;;11.00;;
6013;SDS011;3035;49.928;8.410;2022-11-14T03:09:10;28.43;;;13.33;;
6013;SDS011;3035;49.928;8.410;2022-11-14T03:11:39;17.53;;;10.73;;
6013;SDS011;3035;49.928;8.410;2022-11-14T03:14:07;27.53;;;12.57;;
6013;SDS011;3035;49.928;8.410;2022-11-14T03:16:36;23.73;;;12.83;;
6013;SDS011;3035;49.928;8.410;2022-11-14T03:19:04;26.30;;;12.70;;
6013;SDS011;3035;49.928;8.410;2022-11-14T03:21:32;24.63;;;13.37;;
6013;SDS011;3035;49.928;8.410;2022-11-14T03:24:02;20.93;;;11.80;;
6013;SDS011;3035;49.928;8.410;2022-11-14T03:26:30;21.70;;;12.77;;
6013;SDS011;3035;49.928;8.410;2022-11-14T03:28:58;21.63;;;11.77;;
6013;SDS011;3035;49.928;8.410;2022-11-14T03:31:26;23.40;;;12.63;;
6013;SDS011;3035;49.928;8.410;2022-11-14T03:33:54;22.47;;;12.10;;
6013;SDS011;3035;49.928;8.410;2022-11-14T03:36:24;21.80;;;13.50;;
6013;SDS011;3035;49.928;8.410;2022-11-14T03:38:52;25.13;;;14.20;;
6013;SDS011;3035;49.928;8.410;2022-11-14T03:41:20;24.53;;;11.80;;
6013;SDS011;3035;49.928;8.410;2022-11-14T03:43:48;19.77;;;11.47;;
6013;SDS011;3035;49.928;8.410;2022-11-14T03:46:17;23.10;;;12.00;;
6013;SDS011;3035;49.928;8.410;2022-11-14T03:48:46;22.53;;;13.10;;
6013;SDS011;3035;49.928;8.410;2022-11-14T03:51:14;23.87;;;12.10;;
6013;SDS011;3035;49.928;8.410;2022-11-14T03:53:42;20.40;;;12.47;;
6013;SDS011;3035;49.928;8.410;2022-11-14T03:56:10;23.47;;;12.83;;
6013;SDS011;3035;49.928;8.410;2022-11-14T03:58:38;25.00;;;12.53;;
6013;SDS011;3035;49.928;8.410;2022-11-14T04:01:07;21.30;;;11.57;;
6013;SDS011;3035;49.928;8.410;2022-11-14T04:03:36;22.50;;;12.13;;
6013;SDS011;3035;49.928;8.410;2022-11-14T04:06:05;20.80;;;12.17;;
6013;SDS011;3035;49.928;8.410;2022-11-14T04:08:33;23.13;;;12.33;;
6013;SDS011;3035;49.928;8.410;2022-11-14T04:11:01;22.67;;;12.20;;
6013;SDS011;3035;49.928;8.410;2022-11-14T04:13:30;24.30;;;11.90;;
6013;SDS011;3035;49.928;8.410;2022-11-14T04:15:58;25.57;;;13.23;;
6013;SDS011;3035;49.928;8.410;2022-11-14T04:18:27;24.60;;;11.77;;
6013;SDS011;3035;49.928;8.410;2022-11-14T04:20:56;22.00;;;12.43;;
6013;SDS011;3035;49.928;8.410;2022-11-14T04:23:25;25.80;;;14.80;;
6013;SDS011;3035;49.928;8.410;2022-11-14T04:25:53;24.70;;;14.03;;
6013;SDS011;3035;49.928;8.410;2022-11-14T04:28:23;24.70;;;13.17;;
6013;SDS011;3035;49.928;8.410;2022-11-14T04:30:52;26.30;;;14.30;;
6013;SDS011;3035;49.928;8.410;2022-11-14T04:33:20;28.47;;;13.90;;
6013;SDS011;3035;49.928;8.410;2022-11-14T04:35:49;23.90;;;12.47;;
6013;SDS011;3035;49.928;8.410;2022-11-14T04:38:17;23.67;;;12.70;;
6013;SDS011;3035;49.928;8.410;2022-11-14T04:40:48;20.33;;;12.03;;
6013;SDS011;3035;49.928;8.410;2022-11-14T04:43:17;21.60;;;12.40;;
6013;SDS011;3035;49.928;8.410;2022-11-14T04:45:45;21.27;;;12.77;;
6013;SDS011;3035;49.928;8.410;2022-11-14T04:48:13;24.17;;;14.40;;
6013;SDS011;3035;49.928;8.410;2022-11-14T04:50:43;24.47;;;13.07;;
6013;SDS011;3035;49.928;8.410;2022-11-14T04:53:10;23.03;;;13.53;;
6013;SDS011;3035;49.928;8.410;2022-11-14T04:55:39;22.70;;;12.47;;
6013;SDS011;3035;49.928;8.410;2022-11-14T04:58:07;23.73;;;12.03;;
6013;SDS011;3035;49.928;8.410;2022-11-14T05:00:35;21.00;;;12.60;;
6013;SDS011;3035;49.928;8.410;2022-11-14T05:03:03;26.50;;;14.10;;
6013;SDS011;3035;49.928;8.410;2022-11-14T05:05:32;28.10;;;14.20;;
6013;SDS011;3035;49.928;8.410;2022-11-14T05:08:01;18.60;;;12.03;;
6013;SDS011;3035;49.928;8.410;2022-11-14T05:10:29;18.07;;;11.47;;
6013;SDS011;3035;49.928;8.410;2022-11-14T05:12:57;24.63;;;13.07;;
6013;SDS011;3035;49.928;8.410;2022-11-14T05:15:25;20.90;;;12.63;;
6013;SDS011;3035;49.928;8.410;2022-11-14T05:17:55;17.73;;;11.43;;
6013;SDS011;3035;49.928;8.410;2022-11-14T05:20:22;18.60;;;10.80;;
6013;SDS011;3035;49.928;8.410;2022-11-14T05:22:51;18.20;;;11.33;;
6013;SDS011;3035;49.928;8.410;2022-11-14T05:25:21;21.10;;;11.47;;
6013;SDS011;3035;49.928;8.410;2022-11-14T05:27:49;19.10;;;11.80;;
6013;SDS011;3035;49.928;8.410;2022-11-14T05:30:17;21.17;;;11.73;;
6013;SDS011;3035;49.928;8.410;2022-11-14T05:32:45;16.93;;;11.07;;
6013;SDS011;3035;49.928;8.410;2022-11-14T05:35:13;19.73;;;11.43;;
6013;SDS011;3035;49.928;8.410;2022-11-14T05:37:41;15.67;;;10.20;;
6013;SDS011;3035;49.928;8.410;2022-11-14T05:40:10;15.63;;;9.63;;
6013;SDS011;3035;49.928;8.410;2022-11-14T05:42:39;13.30;;;9.10;;
6013;SDS011;3035;49.928;8.410;2022-11-14T05:45:07;14.90;;;9.07;;
6013;SDS011;3035;49.928;8.410;2022-11-14T05:47:37;14.07;;;9.70;;
6013;SDS011;3035;49.928;8.410;2022-11-14T05:50:05;14.03;;;9.40;;
6013;SDS011;3035;49.928;8.410;2022-11-14T05:52:35;14.97;;;9.30;;
6013;SDS011;3035;49.928;8.410;2022-11-14T05:55:04;15.27;;;9.30;;
6013;SDS011;3035;49.928;8.410;2022-11-14T05:57:34;12.27;;;8.77;;
6013;SDS011;3035;49.928;8.410;2022-11-14T06:00:03;13.67;;;8.47;;
6013;SDS011;3035;49.928;8.410;2022-11-14T06:02:32;13.30;;;8.83;;
6013;SDS011;3035;49.928;8.410;2022-11-14T06:05:00;12.13;;;8.27;;
6013;SDS011;3035;49.928;8.410;2022-11-14T06:07:29;11.13;;;7.90;;
6013;SDS011;3035;49.928;8.410;2022-11-14T06:09:57;12.27;;;8.43;;
6013;SDS011;3035;49.928;8.410;2022-11-14T06:12:25;14.43;;;8.63;;
6013;SDS011;3035;49.928;8.410;2022-11-14T06:14:54;10.87;;;7.87;;
6013;SDS011;3035;49.928;8.410;2022-11-14T06:17:23;12.77;;;8.20;;
6013;SDS011;3035;49.928;8.410;2022-11-14T06:19:51;15.70;;;8.97;;
6013;SDS011;3035;49.928;8.410;2022-11-14T06:22:20;12.17;;;9.90;;
6013;SDS011;3035;49.928;8.410;2022-11-14T06:24:48;13.47;;;8.43;;
6013;SDS011;3035;49.928;8.410;2022-11-14T06:27:17;14.77;;;8.40;;
6013;SDS011;3035;49.928;8.410;2022-11-14T06:29:46;11.43;;;8.37;;
6013;SDS011;3035;49.928;8.410;2022-11-14T06:32:14;12.77;;;8.20;;
6013;SDS011;3035;49.928;8.410;2022-11-14T06:34:43;14.83;;;8.37;;
6013;SDS011;3035;49.928;8.410;2022-11-14T06:37:11;11.77;;;8.50;;
6013;SDS011;3035;49.928;8.410;2022-11-14T06:39:40;12.90;;;8.47;;
6013;SDS011;3035;49.928;8.410;2022-11-14T06:42:08;12.87;;;8.77;;
6013;SDS011;3035;49.928;8.410;2022-11-14T06:44:36;11.37;;;7.43;;
6013;SDS011;3035;49.928;8.410;2022-11-14T06:47:05;11.73;;;7.97;;
6013;SDS011;3035;49.928;8.410;2022-11-14T06:49:33;12.33;;;7.83;;
6013;SDS011;3035;49.928;8.410;2022-11-14T06:52:01;14.40;;;8.43;;
6013;SDS011;3035;49.928;8.410;2022-11-14T06:54:31;14.53;;;8.90;;
6013;SDS011;3035;49.928;8.410;2022-11-14T06:56:59;13.53;;;8.53;;
6013;SDS011;3035;49.928;8.410;2022-11-14T06:59:27;14.13;;;8.00;;
6013;SDS011;3035;49.928;8.410;2022-11-14T07:01:56;12.70;;;8.07;;
6013;SDS011;3035;49.928;8.410;2022-11-14T07:04:24;12.20;;;8.07;;
6013;SDS011;3035;49.928;8.410;2022-11-14T07:06:52;13.40;;;9.20;;
6013;SDS011;3035;49.928;8.410;2022-11-14T07:09:21;11.30;;;8.53;;
6013;SDS011;3035;49.928;8.410;2022-11-14T07:11:49;15.37;;;9.80;;
6013;SDS011;3035;49.928;8.410;2022-11-14T07:14:18;16.80;;;8.60;;
6013;SDS011;3035;49.928;8.410;2022-11-14T07:16:46;12.97;;;8.90;;
6013;SDS011;3035;49.928;8.410;2022-11-14T07:19:14;12.47;;;7.93;;
6013;SDS011;3035;49.928;8.410;2022-11-14T07:21:42;12.80;;;8.97;;
6013;SDS011;3035;49.928;8.410;2022-11-14T07:24:11;13.23;;;8.50;;
6013;SDS011;3035;49.928;8.410;2022-11-14T07:26:39;13.87;;;9.13;;
6013;SDS011;3035;49.928;8.410;2022-11-14T07:29:08;10.10;;;7.37;;
6013;SDS011;3035;49.928;8.410;2022-11-14T07:31:37;13.40;;;9.20;;
6013;SDS011;3035;49.928;8.410;2022-11-14T07:34:05;14.67;;;8.67;;
6013;SDS011;3035;49.928;8.410;2022-11-14T07:36:33;12.93;;;8.90;;
6013;SDS011;3035;49.928;8.410;2022-11-14T07:39:02;13.17;;;9.53;;
6013;SDS011;3035;49.928;8.410;2022-11-14T07:41:30;13.53;;;8.93;;
6013;SDS011;3035;49.928;8.410;2022-11-14T07:43:59;15.10;;;8.60;;
6013;SDS011;3035;49.928;8.410;2022-11-14T07:46:27;15.70;;;9.70;;
6013;SDS011;3035;49.928;8.410;2022-11-14T07:48:56;15.20;;;9.10;;
6013;SDS011;3035;49.928;8.410;2022-11-14T07:51:24;12.13;;;8.70;;
6013;SDS011;3035;49.928;8.410;2022-11-14T07:53:53;13.03;;;8.90;;
6013;SDS011;3035;49.928;8.410;2022-11-14T07:56:22;13.00;;;9.37;;
6013;SDS011;3035;49.928;8.410;2022-11-14T07:58:50;15.60;;;9.37;;
6013;SDS011;3035;49.928;8.410;2022-11-14T08:01:18;16.47;;;10.13;;
6013;SDS011;3035;49.928;8.410;2022-11-14T08:03:47;18.67;;;10.00;;
6013;SDS011;3035;49.928;8.410;2022-11-14T08:06:16;16.63;;;10.00;;
6013;SDS011;3035;49.928;8.410;2022-11-14T08:08:44;15.87;;;9.80;;
6013;SDS011;3035;49.928;8.410;2022-11-14T08:11:13;22.87;;;10.03;;
6013;SDS011;3035;49.928;8.410;2022-11-14T08:13:41;19.03;;;12.20;;
6013;SDS011;3035;49.928;8.410;2022-11-14T08:16:09;25.63;;;12.53;;
6013;SDS011;3035;49.928;8.410;2022-11-14T08:18:38;29.03;;;11.23;;
6013;SDS011;3035;49.928;8.410;2022-11-14T08:21:06;21.63;;;12.57;;
6013;SDS011;3035;49.928;8.410;2022-11-14T08:23:35;22.47;;;13.20;;
6013;SDS011;3035;49.928;8.410;2022-11-14T08:26:03;23.03;;;12.20;;
6013;SDS011;3035;49.928;8.410;2022-11-14T08:28:32;26.40;;;14.07;;
6013;SDS011;3035;49.928;8.410;2022-11-14T08:31:00;31.20;;;14.30;;
6013;SDS011;3035;49.928;8.410;2022-11-14T08:33:28;29.43;;;14.53;;
6013;SDS011;3035;49.928;8.410;2022-11-14T08:35:59;27.50;;;14.30;;
6013;SDS011;3035;49.928;8.410;2022-11-14T08:38:29;27.93;;;14.40;;
6013;SDS011;3035;49.928;8.410;2022-11-14T08:40:58;28.30;;;16.00;;
6013;SDS011;3035;49.928;8.410;2022-11-14T08:43:25;29.30;;;15.17;;
6013;SDS011;3035;49.928;8.410;2022-11-14T08:45:56;30.30;;;15.80;;
6013;SDS011;3035;49.928;8.410;2022-11-14T08:48:26;26.23;;;15.00;;
6013;SDS011;3035;49.928;8.410;2022-11-14T08:50:54;27.97;;;15.20;;
6013;SDS011;3035;49.928;8.410;2022-11-14T08:53:24;26.40;;;14.60;;
6013;SDS011;3035;49.928;8.410;2022-11-14T08:55:52;28.00;;;15.23;;
6013;SDS011;3035;49.928;8.410;2022-11-14T08:58:20;27.10;;;14.50;;
6013;SDS011;3035;49.928;8.410;2022-11-14T09:00:48;32.27;;;15.43;;
6013;SDS011;3035;49.928;8.410;2022-11-14T09:03:16;26.63;;;14.53;;
6013;SDS011;3035;49.928;8.410;2022-11-14T09:05:49;30.10;;;15.00;;
6013;SDS011;3035;49.928;8.410;2022-11-14T09:08:14;25.00;;;14.70;;
6013;SDS011;3035;49.928;8.410;2022-11-14T09:10:42;36.77;;;17.60;;
6013;SDS011;3035;49.928;8.410;2022-11-14T09:13:11;29.33;;;14.57;;
6013;SDS011;3035;49.928;8.410;2022-11-14T09:15:40;31.67;;;15.73;;
6013;SDS011;3035;49.928;8.410;2022-11-14T09:18:09;43.00;;;16.27;;
6013;SDS011;3035;49.928;8.410;2022-11-14T09:20:37;30.70;;;15.33;;
6013;SDS011;3035;49.928;8.410;2022-11-14T09:23:05;27.50;;;14.70;;
6013;SDS011;3035;49.928;8.410;2022-11-14T09:25:34;32.13;;;16.17;;
6013;SDS011;3035;49.928;8.410;2022-11-14T09:28:02;26.87;;;15.57;;
6013;SDS011;3035;49.928;8.410;2022-11-14T09:30:30;29.77;;;15.00;;
6013;SDS011;3035;49.928;8.410;2022-11-14T09:33:00;28.33;;;15.67;;
6013;SDS011;3035;49.928;8.410;2022-11-14T09:35:29;29.77;;;15.33;;
6013;SDS011;3035;49.928;8.410;2022-11-14T09:37:58;27.10;;;15.63;;
6013;SDS011;3035;49.928;8.410;2022-11-14T09:40:26;24.27;;;15.20;;
6013;SDS011;3035;49.928;8.410;2022-11-14T09:42:59;26.20;;;14.00;;
6013;SDS011;3035;49.928;8.410;2022-11-14T09:45:41;28.80;;;14.37;;
6013;SDS011;3035;49.928;8.410;2022-11-14T09:48:11;28.03;;;14.90;;
6013;SDS011;3035;49.928;8.410;2022-11-14T09:50:41;29.97;;;15.03;;
6013;SDS011;3035;49.928;8.410;2022-11-14T09:53:18;29.57;;;14.93;;
6013;SDS011;3035;49.928;8.410;2022-11-14T09:55:37;22.23;;;13.70;;
6013;SDS011;3035;49.928;8.410;2022-11-14T09:58:07;27.33;;;14.93;;
6013;SDS011;3035;49.928;8.410;2022-11-14T10:00:43;35.50;;;16.80;;
6013;SDS011;3035;49.928;8.410;2022-11-14T10:06:32;27.17;;;14.80;;
6013;SDS011;3035;49.928;8.410;2022-11-14T10:09:08;23.93;;;13.70;;
6013;SDS011;3035;49.928;8.410;2022-11-14T10:11:38;22.83;;;13.93;;
6013;SDS011;3035;49.928;8.410;2022-11-14T10:16:52;26.50;;;13.47;;
6013;SDS011;3035;49.928;8.410;2022-11-14T10:25:17;27.23;;;13.67;;
6013;SDS011;3035;49.928;8.410;2022-11-14T10:28:28;24.27;;;13.63;;
6013;SDS011;3035;49.928;8.410;2022-11-14T10:31:19;19.30;;;12.37;;
6013;SDS011;3035;49.928;8.410;2022-11-14T10:33:56;18.23;;;10.30;;
6013;SDS011;3035;49.928;8.410;2022-11-14T10:36:46;21.93;;;12.30;;
6013;SDS011;3035;49.928;8.410;2022-11-14T10:39:18;21.03;;;12.70;;
6013;SDS011;3035;49.928;8.410;2022-11-14T10:41:45;18.57;;;11.30;;
6013;SDS011;3035;49.928;8.410;2022-11-14T10:44:15;21.23;;;13.00;;
6013;SDS011;3035;49.928;8.410;2022-11-14T10:46:46;18.87;;;11.30;;
6013;SDS011;3035;49.928;8.410;2022-11-14T10:49:17;18.47;;;12.17;;
6013;SDS011;3035;49.928;8.410;2022-11-14T10:51:49;25.20;;;12.80;;
6013;SDS011;3035;49.928;8.410;2022-11-14T10:54:17;17.90;;;11.33;;
6013;SDS011;3035;49.928;8.410;2022-11-14T10:56:51;17.90;;;10.70;;
6013;SDS011;3035;49.928;8.410;2022-11-14T10:59:19;14.80;;;10.20;;
6013;SDS011;3035;49.928;8.410;2022-11-14T11:01:57;16.97;;;10.43;;
6013;SDS011;3035;49.928;8.410;2022-11-14T11:04:28;17.33;;;9.20;;
6013;SDS011;3035;49.928;8.410;2022-11-14T11:09:58;18.50;;;11.60;;
6013;SDS011;3035;49.928;8.410;2022-11-14T11:12:43;16.77;;;11.10;;
6013;SDS011;3035;49.928;8.410;2022-11-14T11:15:20;17.37;;;11.40;;
6013;SDS011;3035;49.928;8.410;2022-11-14T11:17:56;16.47;;;10.93;;
6013;SDS011;3035;49.928;8.410;2022-11-14T11:20:28;22.90;;;10.93;;
6013;SDS011;3035;49.928;8.410;2022-11-14T11:23:10;20.33;;;11.23;;
6013;SDS011;3035;49.928;8.410;2022-11-14T11:25:45;17.70;;;10.57;;
6013;SDS011;3035;49.928;8.410;2022-11-14T11:28:15;13.27;;;8.97;;
6013;SDS011;3035;49.928;8.410;2022-11-14T11:33:25;16.67;;;9.70;;
6013;SDS011;3035;49.928;8.410;2022-11-14T11:35:55;16.50;;;10.33;;
6013;SDS011;3035;49.928;8.410;2022-11-14T11:38:25;16.87;;;9.97;;
6013;SDS011;3035;49.928;8.410;2022-11-14T11:40:58;18.80;;;9.40;;
6013;SDS011;3035;49.928;8.410;2022-11-14T11:46:20;13.70;;;9.27;;
6013;SDS011;3035;49.928;8.410;2022-11-14T11:49:06;15.37;;;9.83;;
6013;SDS011;3035;49.928;8.410;2022-11-14T11:51:48;14.90;;;9.87;;
6013;SDS011;3035;49.928;8.410;2022-11-14T11:54:18;13.10;;;8.60;;
6013;SDS011;3035;49.928;8.410;2022-11-14T11:56:46;14.50;;;9.70;;
6013;SDS011;3035;49.928;8.410;2022-11-14T11:59:18;18.63;;;9.40;;
6013;SDS011;3035;49.928;8.410;2022-11-14T12:02:01;13.47;;;9.00;;
6013;SDS011;3035;49.928;8.410;2022-11-14T12:04:30;12.20;;;8.60;;
6013;SDS011;3035;49.928;8.410;2022-11-14T12:07:09;12.03;;;8.67;;
6013;SDS011;3035;49.928;8.410;2022-11-14T12:09:40;14.90;;;9.23;;
6013;SDS011;3035;49.928;8.410;2022-11-14T12:12:14;13.93;;;8.10;;
6013;SDS011;3035;49.928;8.410;2022-11-14T12:14:50;10.43;;;7.70;;
6013;SDS011;3035;49.928;8.410;2022-11-14T12:17:38;12.70;;;8.70;;
6013;SDS011;3035;49.928;8.410;2022-11-14T12:26:40;16.03;;;8.60;;
6013;SDS011;3035;49.928;8.410;2022-11-14T12:29:11;9.20;;;7.40;;
6013;SDS011;3035;49.928;8.410;2022-11-14T12:31:47;12.77;;;8.10;;
6013;SDS011;3035;49.928;8.410;2022-11-14T12:34:20;12.60;;;8.40;;
6013;SDS011;3035;49.928;8.410;2022-11-14T12:36:45;9.43;;;7.40;;
6013;SDS011;3035;49.928;8.410;2022-11-14T12:39:22;10.83;;;7.20;;
6013;SDS011;3035;49.928;8.410;2022-11-14T12:44:32;13.00;;;8.37;;
6013;SDS011;3035;49.928;8.410;2022-11-14T12:47:11;13.10;;;8.07;;
6013;SDS011;3035;49.928;8.410;2022-11-14T12:53:05;12.70;;;8.90;;
6013;SDS011;3035;49.928;8.410;2022-11-14T12:58:22;12.23;;;8.33;;
6013;SDS011;3035;49.928;8.410;2022-11-14T13:01:05;11.80;;;8.10;;
6013;SDS011;3035;49.928;8.410;2022-11-14T13:06:45;17.83;;;12.00;;
6013;SDS011;3035;49.928;8.410;2022-11-14T13:09:26;18.50;;;11.53;;
6013;SDS011;3035;49.928;8.410;2022-11-14T13:11:58;22.40;;;10.87;;
6013;SDS011;3035;49.928;8.410;2022-11-14T13:14:46;20.60;;;11.40;;
6013;SDS011;3035;49.928;8.410;2022-11-14T13:17:22;18.17;;;11.40;;
6013;SDS011;3035;49.928;8.410;2022-11-14T13:19:55;13.70;;;9.50;;
6013;SDS011;3035;49.928;8.410;2022-11-14T13:22:44;14.77;;;9.70;;
6013;SDS011;3035;49.928;8.410;2022-11-14T13:25:15;12.50;;;9.00;;
6013;SDS011;3035;49.928;8.410;2022-11-14T13:27:42;16.53;;;9.50;;
6013;SDS011;3035;49.928;8.410;2022-11-14T13:30:10;15.57;;;9.60;;
6013;SDS011;3035;49.928;8.410;2022-11-14T13:35:25;14.43;;;8.87;;
6013;SDS011;3035;49.928;8.410;2022-11-14T13:38:16;14.10;;;9.37;;
6013;SDS011;3035;49.928;8.410;2022-11-14T13:41:20;12.67;;;8.50;;
6013;SDS011;3035;49.928;8.410;2022-11-14T13:46:53;15.00;;;8.77;;
6013;SDS011;3035;49.928;8.410;2022-11-14T13:52:12;13.50;;;9.30;;
6013;SDS011;3035;49.928;8.410;2022-11-14T13:54:44;12.83;;;8.43;;
6013;SDS011;3035;49.928;8.410;2022-11-14T13:57:19;10.90;;;8.63;;
6013;SDS011;3035;49.928;8.410;2022-11-14T13:59:58;15.63;;;9.50;;
6013;SDS011;3035;49.928;8.410;2022-11-14T14:11:26;14.10;;;9.50;;
6013;SDS011;3035;49.928;8.410;2022-11-14T14:19:59;14.60;;;9.13;;
6013;SDS011;3035;49.928;8.410;2022-11-14T14:22:55;12.47;;;8.17;;
6013;SDS011;3035;49.928;8.410;2022-11-14T14:25:40;13.13;;;8.83;;
6013;SDS011;3035;49.928;8.410;2022-11-14T14:28:13;11.90;;;8.30;;
6013;SDS011;3035;49.928;8.410;2022-11-14T14:30:40;12.20;;;7.90;;
6013;SDS011;3035;49.928;8.410;2022-11-14T14:33:09;18.63;;;11.20;;
6013;SDS011;3035;49.928;8.410;2022-11-14T14:35:38;16.63;;;9.67;;
6013;SDS011;3035;49.928;8.410;2022-11-14T14:38:09;14.40;;;9.23;;
6013;SDS011;3035;49.928;8.410;2022-11-14T14:40:39;21.33;;;9.90;;
6013;SDS011;3035;49.928;8.410;2022-11-14T14:43:06;13.90;;;8.57;;
6013;SDS011;3035;49.928;8.410;2022-11-14T14:45:43;14.43;;;10.07;;
6013;SDS011;3035;49.928;8.410;2022-11-14T14:48:12;18.63;;;9.03;;
6013;SDS011;3035;49.928;8.410;2022-11-14T14:50:40;14.10;;;8.50;;
6013;SDS011;3035;49.928;8.410;2022-11-14T14:55:54;14.57;;;9.73;;
6013;SDS011;3035;49.928;8.410;2022-11-14T14:58:29;15.73;;;8.83;;
6013;SDS011;3035;49.928;8.410;2022-11-14T15:01:03;13.77;;;8.97;;
6013;SDS011;3035;49.928;8.410;2022-11-14T15:03:34;20.17;;;9.90;;
6013;SDS011;3035;49.928;8.410;2022-11-14T15:09:02;13.53;;;9.20;;
6013;SDS011;3035;49.928;8.410;2022-11-14T15:11:29;18.80;;;9.00;;
6013;SDS011;3035;49.928;8.410;2022-11-14T15:13:58;14.20;;;9.67;;
6013;SDS011;3035;49.928;8.410;2022-11-14T15:16:26;17.97;;;10.17;;
6013;SDS011;3035;49.928;8.410;2022-11-14T15:18:55;13.23;;;8.30;;
6013;SDS011;3035;49.928;8.410;2022-11-14T15:21:25;13.33;;;8.10;;
6013;SDS011;3035;49.928;8.410;2022-11-14T15:23:57;16.03;;;8.23;;
6013;SDS011;3035;49.928;8.410;2022-11-14T15:26:45;16.00;;;8.27;;
6013;SDS011;3035;49.928;8.410;2022-11-14T15:29:16;18.30;;;8.10;;
6013;SDS011;3035;49.928;8.410;2022-11-14T15:31:48;13.07;;;8.70;;
6013;SDS011;3035;49.928;8.410;2022-11-14T15:34:26;12.83;;;8.30;;
6013;SDS011;3035;49.928;8.410;2022-11-14T15:39:46;13.43;;;8.80;;
6013;SDS011;3035;49.928;8.410;2022-11-14T15:42:19;11.47;;;8.30;;
6013;SDS011;3035;49.928;8.410;2022-11-14T15:44:53;11.50;;;7.53;;
6013;SDS011;3035;49.928;8.410;2022-11-14T15:47:33;13.60;;;7.80;;
6013;SDS011;3035;49.928;8.410;2022-11-14T15:50:03;11.83;;;7.10;;
6013;SDS011;3035;49.928;8.410;2022-11-14T15:52:32;13.10;;;7.20;;
6013;SDS011;3035;49.928;8.410;2022-11-14T15:55:02;14.87;;;9.43;;
6013;SDS011;3035;49.928;8.410;2022-11-14T15:57:30;17.83;;;8.70;;
6013;SDS011;3035;49.928;8.410;2022-11-14T16:00:00;18.10;;;9.20;;
6013;SDS011;3035;49.928;8.410;2022-11-14T16:02:30;14.33;;;8.20;;
6013;SDS011;3035;49.928;8.410;2022-11-14T16:04:59;11.53;;;8.53;;
6013;SDS011;3035;49.928;8.410;2022-11-14T16:07:27;12.63;;;8.47;;
6013;SDS011;3035;49.928;8.410;2022-11-14T16:09:56;12.20;;;8.33;;
6013;SDS011;3035;49.928;8.410;2022-11-14T16:12:24;11.10;;;7.90;;
6013;SDS011;3035;49.928;8.410;2022-11-14T16:14:53;15.43;;;7.23;;
6013;SDS011;3035;49.928;8.410;2022-11-14T16:17:21;11.90;;;7.67;;
6013;SDS011;3035;49.928;8.410;2022-11-14T16:19:49;9.23;;;7.40;;
6013;SDS011;3035;49.928;8.410;2022-11-14T16:22:18;9.80;;;7.13;;
6013;SDS011;3035;49.928;8.410;2022-11-14T16:24:46;14.07;;;8.90;;